Timeline UpdatesTrip UpdatesNews PostsPvt PostsTravel TipsAdmin PostsConv PostsFollowed PostsChat RequestsBlog PostsPNR Posts

Disclaimer
Search
 
 
Tue Sep 2, 2014 17:15:46 ISTHomeTrainsΣChainsAtlasPNRForumGalleryNewsFAQTripsMembersLoginFeedback
No Recent News for this Train
Other Trains in the News **new
Latest...
From 1/9/14 HWH Dep:13.10 JBP Arr: 14.25 #1193229
Thu Aug 21, 2014 (09:00PM)
⇐ Return Journey: Train# 11447

11448/Shaktipunj Express

Time-Table HAS CHANGED.
Yesterday (8:30PM)
Change Departure Station:
Change Arrival Station:
Post a Train Travel TipPost a Train Travel Tip **new
Post a Comment/Question/Picture/VideoPost a Comment/Question/Picture/Video
Pantry/Catering
✕ NO Pantry Car
✓ Catering Avbl
Loco/Rake Reversals
CPU/Chopan (3); BRKA/Barkakana Junction (4); KTE/Katni Junction (6);
RSA - Rake Sharing
NO RSA. 3 rakes
Rake/Coach Composition
Coach Composition : ENG-SLR-GEN-GEN-S1-S2-S3-S4-S5-S6-S7-B1-B2-A1-GEN-GEN-SLR; ( 2AC-1, 3AC-2, S-7, GEN-4, SLR-2= 16 coach); ##;
Loco
HWH-BRKA=> HWH WAP-4 BRKA-JBP=> PTRU Twin WDM-3A *****************
News    PNR    Forum    Time-Table    Availability    Fare Chart    Map    Arr/Dep History    Trips    Gallery    ΣChains    X/O    Timeline    
Travel Time: 25h 15m    42 halts    Distance: 1148 km    Avg Speed: 45 km/hr
Type: Mail/Express
Zone: WCR/West Central
Departs @ 13:10
Platform# 12
SMTWTFS
Kolkata Howrah Junction/HWH 
Arrives @ 14:25 +1 night
Platform# 1
SMTWTFS
Jabalpur Junction/JBP 

42 halts. 188 intermediate Stations between Kolkata Howrah Junction and Jabalpur Junction

Show ALL intermediate Stations  Show Old Time-Table

#CodeStation NameX/OArrivesAvgDepartsAvgHaltPFDay#KmSpeedElevZoneAddress
1HWH»Kolkata Howrah Junction (23)»  -14:35 13:10-1210.08610mERHowrah 711101, West Bengal
2BWNBarddhaman Junction (8)  15:55 14:16-16:00 14:21-5m--194.47634mERDist - Barddhaman, West Bengal
3DGRDurgapur (5)X  16:43 15:11-16:45 15:13-2m--1157.98171mERDurgapur, West Bengal
4RNGRaniGanj (4)  17:03 15:31-17:04 15:32-1m--1182.25792mERRaniganj, West Bengal
5ASNAsansol Junction (7)  17:27 15:51-17:35 15:59-8m--1200.431113mERDist - bardhaman, West Bengal
6ULTKulti (3)  17:50 16:26-17:51 16:27-1m--1214.339148mERdist - bardhaman, West Bengal
7BRRBarakar (2)  17:56 16:32-17:57 16:33-1m--1217.630129mERDist. Bardhaman, West Bengal
8KMMEKumardubi (2)  18:02 16:38-18:03 16:39-1m--1220.143135mERDhanbad - 828203(06540-222077), Jharkhand
9DHNDhanbad Junction (8)X  18:58 17:33-19:08 17:43-10m51258.530235mECR2319801. Div. HQ ECR, Jharkhand
10KTHKatrasgarh (1)X  19:36 18:11-19:38 18:13-2m11272.327198mECRKatrasgarh, Jharkhand
11CRPChandrapura Junction (2)X  20:22 18:58-20:23 19:00-1 2m11292.814227mECR06549-242555, Jharkhand
12BHMEBhandaridah  20:34 19:24-20:35 19:25-1m--1298.241212mECRStation Rd, Jharkhand
13PUSPhusro  20:44 19:34-20:45 19:35-1m--1304.329216mECR06549-222754, Jharkhand
14BRMOBermo  20:57 19:47-20:58 19:48-1m--1310.145214mECRBermo Railway Station, Jharkhand
15BKROBokaro Thermal (1)  21:10 20:00-21:11 20:01-1m11319.119240mECRPhusro, Jharkhand
16GMIAGumiaX  21:21 20:19-21:22 20:20-1m--1324.758273mECR06544-261249, Jharkhand
17CNPRChainpur  21:52 20:52-21:53 20:53-1m--1355.449409mECRChainpur, Jharkhand
18RRMERanchi Road (2)  22:08 21:08-22:10 21:10-2m--1367.622355mECR06553-222042, Jharkhand
19BRKABarkakana Junction (4)↵¶22:25 21:35-22:40 21:50-15m21376.746341mECR0653-255225, Jharkhand
20PTRUPatratu (3)  23:04 22:14-23:05 22:15-1m11395.168373mECRDistt: Ramgarh, Jharkhand
21RAYRay (2)  23:29 22:39-23:30 22:40-1m--1422.255447mECRRanchi, Jharkhand
22KLREKhalari (3)  23:40 22:50-23:41 22:51-1m--1431.341459mECRKhelari, Jharkhand
23MGMEMcCluskieGanj (3)X  23:50 23:00-23:51 23:01-1m--1437.553476mECRPipra Toli, Jharkhand
24TORITori (2)  00:11 23:26-00:12 23:27-1m21459.575515mECRChandwa, Jharkhand
25LTHRLatehar (2)  00:43 23:53-00:44 23:54-1m--1492.071381mECRLatehar, Jharkhand
26CPDRChhipadohar (2)  01:11 00:21-01:12 00:22-1m--2523.938339mECRChipadohar bypass, Jharkhand
27BRWDBarwadih Junction (3)  01:25 00:35-01:35 00:40-10 5m12532.155295mECRDist. Latehar, Jharkhand
28DTODaltonGanj (3)  02:00 01:10-02:05 01:15-5m12559.657234mECR230812, Jharkhand
29GHDGarhwa Road Junction (3)X  02:50 01:50-02:55 01:55-5m12592.975188mECRPalamu, Jharkhand
30GHQGarhwa (1)  03:05 02:03-03:06 02:04-1m12602.962211mECRGarhwa, Jharkhand
31NUQNagar Untari (1)  03:37 02:37-03:38 02:38-1m12636.947248mECRGarhwa, Jharkhand
32WDMWyndhamGanj (1)  03:53 02:53-03:54 02:54-1m12648.754243mECRSonebhadra, Uttar Pradesh
33DXNDuddhinagar  04:19 03:19-04:20 03:20-1m12671.344250mECRSonebhadra, Uttar Pradesh
34RNQRenukut (3)  04:49 03:49-04:50 03:50-1m12692.346310mECRSonbhadra, Uttar Pradesh
35CPUChopan (3)05:38 04:45-06:08 05:05-30 20m22734.138194mECRSH 5A Sonebhadra, Uttar Pradesh
36OBRObra Dam (1)X  06:32 05:24-06:33 05:25-1m12746.232210mECRObra, Uttar Pradesh
37SGRLSingrauli (1)  08:40 07:00-08:50 07:10-10m12796.846376mECRSingrauli, Madhya Pradesh
38SGAMSarai Gram (1)  09:54 08:23-09:55 08:25-1 2m12852.974406mWCRSidhi, Madhya Pradesh
39MWJMarwasgram (1)  10:35 09:08-10:36 09:10-1 2m12906.059399mWCRMadhya Pradesh, Madhya Pradesh
40BEHRBeohari (1)  11:15 09:50-11:20 09:55-5m12945.263400mWCRshahdol, Madhya Pradesh
41KHBJKhanna Banjari (1)  12:13 10:53-12:15 10:55-2m121006.329378mWCRState Highway 11, Madhya Pradesh
42KTEKatni Junction (6)13:50 12:40-14:00 12:50-10m121056.895387mWCRKatni, Madhya Pradesh
43SHRSihora Road (2)X  14:39 13:23-14:40 13:25-1 2m221109.139388mWCRJabalpur, Madhya Pradesh
44JBP•Jabalpur Junction (4)•  15:45 14:25--121147.7-416mWCRJabalpur, Madhya Pradesh
Scroll to Top
Scroll to Bottom